Pacific - Georgia Basin: Past 24 Hour Conditions

 

Victoria Int'l Airport

02:00 PM PDT 16 September 2014
This table is a summary of hourly weather conditions for the past 24 hours.
Date / Time
(PDT)
Wind(knots) Conditions Visibility(km) Pressure(kPa) Air tempC) Relative humidity(%) Dew pointC) Humidex
16 September 2014
14:00 SE 11 gust 17 Partly Cloudy 32 101.1 18 60 10 *
13:00 ESE 7 Mostly Cloudy 32 101.1 17 61 10 *
12:00 ESE 4 Mainly Sunny 32 101.1 18 58 10 *
11:00 SE 4 Mainly Sunny 32 101.2 18 56 10 *
10:00 calm Partly Cloudy 32 101.2 18 60 10 *
9:00 WNW 4 Mainly Sunny 48 101.1 16 66 9 *
8:00 WSW 3 Partly Cloudy 48 101.1 14 77 10 *
7:00 WSW 4 Partly Cloudy 48 101.1 11 81 7 *
6:00 WSW 4 Mainly Clear 48 101.1 10 78 7 *
5:00 WSW 4 Mainly Clear 48 101.1 11 79 8 *
4:00 WSW 6 Mainly Clear 48 101.0 13 76 9 *
3:00 W 5 Clear 48 101.0 13 75 9 *
2:00 W 4 Mainly Clear 48 101.0 14 63 7 *
1:00 WSW 5 Clear 48 101.0 12 76 8 *
0:00 SSW 5 Clear 48 101.0 13 66 7 *
15 September 2014
23:00 W 4 Clear 48 101.0 14 63 8 *
22:00 SSW 2 Clear 48 101.0 16 53 6 *
21:00 WNW 5 Mainly Clear 48 100.9 17 66 11 *
20:00 N 1 Mainly Clear 48 100.9 19 48 7 *
19:00 S 2 Mainly Sunny 48 100.9 23 39 9 *
18:00 SE 4 Mainly Sunny 48 100.9 26 31 8 26
17:00 ESE 5 Mainly Sunny 48 100.9 26 31 8 26
16:00 ENE 5 Mainly Sunny 48 101.0 27 29 8 27
15:00 E 4 Mainly Sunny 48 101.0 26 31 8 26
14:00 ENE 7 Mainly Sunny 48 101.1 26 30 7 26
 
Map of Pacific - Georgia Basin marine weather areas Tsawwassen Ferry Terminal Sentry Shoal - 46131 Halibut Bank - 46146 La Perouse Bank - 46206 Discovery Island Esquimalt Harbour Kelp Reefs Malahat Race Rocks Lightstation Saturna Island Sheringham Point University of Victoria Victoria Gonzales Victoria Int'l Airport Ballenas Islands Campbell River Airport Comox Airport Entrance Island Fanny Island Nanaimo Airport Sisters Islets Estevan Point Tofino Airport Grief Point Powell River Airport Sechelt Point Atkinson Sand Heads Lightstation Vancouver Harbour Vancouver Int'l Airport West Vancouver Port Alberni Howe Sound - Pam Rocks Squamish Airport